sensor_id;sensor_type;location;lat;lon;timestamp;temperature;humidity
51996;DHT22;38010;53.264;6.592;2022-12-18T00:01:01;12.00;99.90
51996;DHT22;38010;53.264;6.592;2022-12-18T00:03:32;12.00;99.90
51996;DHT22;38010;53.264;6.592;2022-12-18T00:05:58;12.00;99.90
51996;DHT22;38010;53.264;6.592;2022-12-18T00:08:24;12.00;99.90
51996;DHT22;38010;53.264;6.592;2022-12-18T00:10:50;12.00;99.90
51996;DHT22;38010;53.264;6.592;2022-12-18T00:13:16;12.00;99.90
51996;DHT22;38010;53.264;6.592;2022-12-18T00:15:42;12.00;99.90
51996;DHT22;38010;53.264;6.592;2022-12-18T00:18:08;12.00;99.90
51996;DHT22;38010;53.264;6.592;2022-12-18T00:20:38;12.00;99.90
51996;DHT22;38010;53.264;6.592;2022-12-18T00:23:05;12.10;99.90
51996;DHT22;38010;53.264;6.592;2022-12-18T00:25:35;12.10;99.90
51996;DHT22;38010;53.264;6.592;2022-12-18T00:28:03;12.10;99.90
51996;DHT22;38010;53.264;6.592;2022-12-18T00:30:29;12.10;99.90
51996;DHT22;38010;53.264;6.592;2022-12-18T00:32:55;12.00;99.90
51996;DHT22;38010;53.264;6.592;2022-12-18T00:35:22;12.00;99.90
51996;DHT22;38010;53.264;6.592;2022-12-18T00:37:48;12.10;99.90
51996;DHT22;38010;53.264;6.592;2022-12-18T00:40:13;12.10;99.90
51996;DHT22;38010;53.264;6.592;2022-12-18T00:42:39;12.10;99.90
51996;DHT22;38010;53.264;6.592;2022-12-18T00:45:29;12.10;99.90
51996;DHT22;38010;53.264;6.592;2022-12-18T00:47:56;12.10;99.80
51996;DHT22;38010;53.264;6.592;2022-12-18T00:50:24;12.10;99.80
51996;DHT22;38010;53.264;6.592;2022-12-18T00:52:50;12.10;99.90
51996;DHT22;38010;53.264;6.592;2022-12-18T00:55:16;12.10;99.90
51996;DHT22;38010;53.264;6.592;2022-12-18T00:57:42;12.10;99.80
51996;DHT22;38010;53.264;6.592;2022-12-18T01:00:11;12.10;99.80
51996;DHT22;38010;53.264;6.592;2022-12-18T01:02:37;12.10;99.80
51996;DHT22;38010;53.264;6.592;2022-12-18T01:05:03;12.10;99.80
51996;DHT22;38010;53.264;6.592;2022-12-18T01:07:29;12.10;99.80
51996;DHT22;38010;53.264;6.592;2022-12-18T01:09:55;12.00;99.70
51996;DHT22;38010;53.264;6.592;2022-12-18T01:12:21;12.10;99.80
51996;DHT22;38010;53.264;6.592;2022-12-18T01:14:46;12.10;99.80
51996;DHT22;38010;53.264;6.592;2022-12-18T01:17:12;12.10;99.70
51996;DHT22;38010;53.264;6.592;2022-12-18T01:19:38;12.00;99.70
51996;DHT22;38010;53.264;6.592;2022-12-18T01:22:03;12.00;99.70
51996;DHT22;38010;53.264;6.592;2022-12-18T01:24:29;12.00;99.70
51996;DHT22;38010;53.264;6.592;2022-12-18T01:26:55;12.00;99.70
51996;DHT22;38010;53.264;6.592;2022-12-18T01:29:22;12.00;99.70
51996;DHT22;38010;53.264;6.592;2022-12-18T01:31:48;12.00;99.70
51996;DHT22;38010;53.264;6.592;2022-12-18T01:34:14;11.90;99.70
51996;DHT22;38010;53.264;6.592;2022-12-18T01:36:40;11.90;99.70
51996;DHT22;38010;53.264;6.592;2022-12-18T01:39:09;11.90;99.70
51996;DHT22;38010;53.264;6.592;2022-12-18T01:41:35;11.90;99.70
51996;DHT22;38010;53.264;6.592;2022-12-18T01:49:55;11.80;99.70
51996;DHT22;38010;53.264;6.592;2022-12-18T01:52:22;11.80;99.70
51996;DHT22;38010;53.264;6.592;2022-12-18T01:54:51;11.80;99.70
51996;DHT22;38010;53.264;6.592;2022-12-18T01:57:17;11.70;99.70
51996;DHT22;38010;53.264;6.592;2022-12-18T01:59:45;11.80;99.90
51996;DHT22;38010;53.264;6.592;2022-12-18T02:02:12;11.70;99.70
51996;DHT22;38010;53.264;6.592;2022-12-18T02:04:40;11.70;99.70
51996;DHT22;38010;53.264;6.592;2022-12-18T02:07:20;11.70;99.70
51996;DHT22;38010;53.264;6.592;2022-12-18T02:10:33;11.70;99.70
51996;DHT22;38010;53.264;6.592;2022-12-18T02:12:56;11.70;99.70
51996;DHT22;38010;53.264;6.592;2022-12-18T02:18:22;11.70;99.70
51996;DHT22;38010;53.264;6.592;2022-12-18T02:26:29;11.70;99.70
51996;DHT22;38010;53.264;6.592;2022-12-18T02:29:03;11.70;99.70
51996;DHT22;38010;53.264;6.592;2022-12-18T02:31:36;11.70;99.70
51996;DHT22;38010;53.264;6.592;2022-12-18T02:34:05;11.70;99.70
51996;DHT22;38010;53.264;6.592;2022-12-18T02:36:32;11.70;99.70
51996;DHT22;38010;53.264;6.592;2022-12-18T02:38:59;11.70;99.70
51996;DHT22;38010;53.264;6.592;2022-12-18T02:41:26;11.70;99.70
51996;DHT22;38010;53.264;6.592;2022-12-18T02:43:56;11.70;99.70
51996;DHT22;38010;53.264;6.592;2022-12-18T02:46:42;11.70;99.70
51996;DHT22;38010;53.264;6.592;2022-12-18T02:49:14;11.80;99.70
51996;DHT22;38010;53.264;6.592;2022-12-18T02:54:35;11.80;99.60
51996;DHT22;38010;53.264;6.592;2022-12-18T02:57:17;11.80;99.60
51996;DHT22;38010;53.264;6.592;2022-12-18T03:00:12;11.80;99.60
51996;DHT22;38010;53.264;6.592;2022-12-18T03:05:36;11.80;99.60
51996;DHT22;38010;53.264;6.592;2022-12-18T03:08:07;11.80;99.60
51996;DHT22;38010;53.264;6.592;2022-12-18T03:10:39;11.80;99.60
51996;DHT22;38010;53.264;6.592;2022-12-18T03:13:11;11.80;99.60
51996;DHT22;38010;53.264;6.592;2022-12-18T03:15:51;11.80;99.60
51996;DHT22;38010;53.264;6.592;2022-12-18T03:18:48;11.80;99.50
51996;DHT22;38010;53.264;6.592;2022-12-18T03:21:17;11.80;99.50
51996;DHT22;38010;53.264;6.592;2022-12-18T03:23:48;11.80;99.50
51996;DHT22;38010;53.264;6.592;2022-12-18T03:26:21;11.80;99.80
51996;DHT22;38010;53.264;6.592;2022-12-18T03:28:51;11.80;99.50
51996;DHT22;38010;53.264;6.592;2022-12-18T03:31:20;11.80;99.50
51996;DHT22;38010;53.264;6.592;2022-12-18T03:33:58;11.80;99.50
51996;DHT22;38010;53.264;6.592;2022-12-18T03:36:24;11.90;99.50
51996;DHT22;38010;53.264;6.592;2022-12-18T03:38:50;11.90;99.50
51996;DHT22;38010;53.264;6.592;2022-12-18T03:49:35;11.90;99.40
51996;DHT22;38010;53.264;6.592;2022-12-18T03:52:26;11.90;99.40
51996;DHT22;38010;53.264;6.592;2022-12-18T03:54:55;11.90;99.40
51996;DHT22;38010;53.264;6.592;2022-12-18T03:57:26;11.90;99.40
51996;DHT22;38010;53.264;6.592;2022-12-18T03:59:57;11.90;99.40
51996;DHT22;38010;53.264;6.592;2022-12-18T04:02:25;11.90;99.40
51996;DHT22;38010;53.264;6.592;2022-12-18T04:04:58;11.90;99.60
51996;DHT22;38010;53.264;6.592;2022-12-18T04:07:25;12.00;99.40
51996;DHT22;38010;53.264;6.592;2022-12-18T04:09:53;11.90;99.30
51996;DHT22;38010;53.264;6.592;2022-12-18T04:12:21;12.00;99.30
51996;DHT22;38010;53.264;6.592;2022-12-18T04:14:46;12.00;99.30
51996;DHT22;38010;53.264;6.592;2022-12-18T04:17:12;11.90;99.30
51996;DHT22;38010;53.264;6.592;2022-12-18T04:19:38;12.00;99.30
51996;DHT22;38010;53.264;6.592;2022-12-18T04:22:03;11.90;99.30
51996;DHT22;38010;53.264;6.592;2022-12-18T04:24:29;11.90;99.30
51996;DHT22;38010;53.264;6.592;2022-12-18T04:26:55;12.00;99.30
51996;DHT22;38010;53.264;6.592;2022-12-18T04:29:20;11.90;99.30
51996;DHT22;38010;53.264;6.592;2022-12-18T04:31:46;11.90;99.20
51996;DHT22;38010;53.264;6.592;2022-12-18T04:34:11;11.90;99.20
51996;DHT22;38010;53.264;6.592;2022-12-18T04:36:37;11.90;99.20
51996;DHT22;38010;53.264;6.592;2022-12-18T04:39:03;12.00;99.30
51996;DHT22;38010;53.264;6.592;2022-12-18T04:41:28;11.90;99.20
51996;DHT22;38010;53.264;6.592;2022-12-18T04:43:54;12.00;99.30
51996;DHT22;38010;53.264;6.592;2022-12-18T04:46:20;12.00;99.30
51996;DHT22;38010;53.264;6.592;2022-12-18T04:48:46;11.90;99.20
51996;DHT22;38010;53.264;6.592;2022-12-18T04:51:12;11.90;99.20
51996;DHT22;38010;53.264;6.592;2022-12-18T04:53:38;12.00;99.20
51996;DHT22;38010;53.264;6.592;2022-12-18T04:56:09;11.90;99.20
51996;DHT22;38010;53.264;6.592;2022-12-18T04:58:36;11.90;99.20
51996;DHT22;38010;53.264;6.592;2022-12-18T05:01:02;11.90;99.20
51996;DHT22;38010;53.264;6.592;2022-12-18T05:03:29;12.00;99.20
51996;DHT22;38010;53.264;6.592;2022-12-18T05:05:54;11.90;99.20
51996;DHT22;38010;53.264;6.592;2022-12-18T05:08:20;12.00;99.20
51996;DHT22;38010;53.264;6.592;2022-12-18T05:10:46;12.00;99.20
51996;DHT22;38010;53.264;6.592;2022-12-18T05:13:11;11.90;99.10
51996;DHT22;38010;53.264;6.592;2022-12-18T05:15:37;12.00;99.20
51996;DHT22;38010;53.264;6.592;2022-12-18T05:18:03;12.00;99.20
51996;DHT22;38010;53.264;6.592;2022-12-18T05:20:30;11.90;99.10
51996;DHT22;38010;53.264;6.592;2022-12-18T05:22:56;11.90;99.10
51996;DHT22;38010;53.264;6.592;2022-12-18T05:25:22;12.00;99.20
51996;DHT22;38010;53.264;6.592;2022-12-18T05:27:48;12.00;99.10
51996;DHT22;38010;53.264;6.592;2022-12-18T05:30:14;12.00;99.10
51996;DHT22;38010;53.264;6.592;2022-12-18T05:32:40;12.00;99.10
51996;DHT22;38010;53.264;6.592;2022-12-18T05:35:10;12.00;99.10
51996;DHT22;38010;53.264;6.592;2022-12-18T05:37:36;12.00;99.10
51996;DHT22;38010;53.264;6.592;2022-12-18T05:40:03;12.00;99.10
51996;DHT22;38010;53.264;6.592;2022-12-18T05:42:30;12.00;99.10
51996;DHT22;38010;53.264;6.592;2022-12-18T05:44:56;12.00;99.10
51996;DHT22;38010;53.264;6.592;2022-12-18T05:47:22;12.00;99.10
51996;DHT22;38010;53.264;6.592;2022-12-18T05:49:47;12.00;99.10
51996;DHT22;38010;53.264;6.592;2022-12-18T05:52:13;12.00;99.10
51996;DHT22;38010;53.264;6.592;2022-12-18T05:54:39;12.00;99.00
51996;DHT22;38010;53.264;6.592;2022-12-18T05:57:05;12.00;99.30
51996;DHT22;38010;53.264;6.592;2022-12-18T05:59:30;12.00;99.00
51996;DHT22;38010;53.264;6.592;2022-12-18T06:01:56;12.00;99.00
51996;DHT22;38010;53.264;6.592;2022-12-18T06:04:22;12.00;99.00
51996;DHT22;38010;53.264;6.592;2022-12-18T06:06:47;12.00;99.00
51996;DHT22;38010;53.264;6.592;2022-12-18T06:09:13;12.00;99.00
51996;DHT22;38010;53.264;6.592;2022-12-18T06:11:39;12.00;99.00
51996;DHT22;38010;53.264;6.592;2022-12-18T06:14:05;12.00;99.00
51996;DHT22;38010;53.264;6.592;2022-12-18T06:16:31;12.00;99.00
51996;DHT22;38010;53.264;6.592;2022-12-18T06:19:02;12.00;99.00
51996;DHT22;38010;53.264;6.592;2022-12-18T06:21:28;12.00;99.00
51996;DHT22;38010;53.264;6.592;2022-12-18T06:23:54;12.00;99.00
51996;DHT22;38010;53.264;6.592;2022-12-18T06:26:20;12.00;99.00
51996;DHT22;38010;53.264;6.592;2022-12-18T06:28:46;12.00;99.00
51996;DHT22;38010;53.264;6.592;2022-12-18T06:31:11;12.00;99.00
51996;DHT22;38010;53.264;6.592;2022-12-18T06:33:38;12.00;98.90
51996;DHT22;38010;53.264;6.592;2022-12-18T06:36:06;12.00;98.90
51996;DHT22;38010;53.264;6.592;2022-12-18T06:38:34;12.00;98.90
51996;DHT22;38010;53.264;6.592;2022-12-18T06:41:00;12.00;98.90
51996;DHT22;38010;53.264;6.592;2022-12-18T06:43:26;12.00;98.90
51996;DHT22;38010;53.264;6.592;2022-12-18T06:45:59;12.00;98.90
51996;DHT22;38010;53.264;6.592;2022-12-18T06:48:25;12.00;98.90
51996;DHT22;38010;53.264;6.592;2022-12-18T06:50:51;12.00;98.90
51996;DHT22;38010;53.264;6.592;2022-12-18T06:53:17;12.00;98.90
51996;DHT22;38010;53.264;6.592;2022-12-18T06:55:42;12.00;99.10
51996;DHT22;38010;53.264;6.592;2022-12-18T06:58:08;12.00;99.10
51996;DHT22;38010;53.264;6.592;2022-12-18T07:00:34;12.00;98.90
51996;DHT22;38010;53.264;6.592;2022-12-18T07:03:00;12.00;98.80
51996;DHT22;38010;53.264;6.592;2022-12-18T07:05:25;12.00;98.80
51996;DHT22;38010;53.264;6.592;2022-12-18T07:07:51;12.00;98.80
51996;DHT22;38010;53.264;6.592;2022-12-18T07:10:17;12.00;98.80
51996;DHT22;38010;53.264;6.592;2022-12-18T07:12:43;12.00;98.80
51996;DHT22;38010;53.264;6.592;2022-12-18T07:15:09;12.00;98.80
51996;DHT22;38010;53.264;6.592;2022-12-18T07:17:35;12.00;98.80
51996;DHT22;38010;53.264;6.592;2022-12-18T07:20:34;12.10;98.80
51996;DHT22;38010;53.264;6.592;2022-12-18T07:23:02;12.10;98.60
51996;DHT22;38010;53.264;6.592;2022-12-18T07:25:28;12.00;98.70
51996;DHT22;38010;53.264;6.592;2022-12-18T07:27:54;12.10;98.80
51996;DHT22;38010;53.264;6.592;2022-12-18T07:30:20;12.10;98.80
51996;DHT22;38010;53.264;6.592;2022-12-18T07:32:45;12.10;98.80
51996;DHT22;38010;53.264;6.592;2022-12-18T07:35:11;12.10;98.80
51996;DHT22;38010;53.264;6.592;2022-12-18T07:37:36;12.10;98.80
51996;DHT22;38010;53.264;6.592;2022-12-18T07:40:02;12.10;98.70
51996;DHT22;38010;53.264;6.592;2022-12-18T07:42:28;12.20;98.70
51996;DHT22;38010;53.264;6.592;2022-12-18T07:44:58;12.20;98.70
51996;DHT22;38010;53.264;6.592;2022-12-18T07:47:24;12.20;98.70
51996;DHT22;38010;53.264;6.592;2022-12-18T07:49:50;12.30;98.70
51996;DHT22;38010;53.264;6.592;2022-12-18T07:52:15;12.30;98.70
51996;DHT22;38010;53.264;6.592;2022-12-18T07:54:41;12.30;98.60
51996;DHT22;38010;53.264;6.592;2022-12-18T07:57:07;12.30;98.60
51996;DHT22;38010;53.264;6.592;2022-12-18T07:59:33;12.30;98.60
51996;DHT22;38010;53.264;6.592;2022-12-18T08:01:59;12.30;98.60
51996;DHT22;38010;53.264;6.592;2022-12-18T08:04:25;12.40;98.60
51996;DHT22;38010;53.264;6.592;2022-12-18T08:09:17;12.40;98.30
51996;DHT22;38010;53.264;6.592;2022-12-18T08:11:43;12.40;98.50
51996;DHT22;38010;53.264;6.592;2022-12-18T08:14:09;12.40;98.50
51996;DHT22;38010;53.264;6.592;2022-12-18T08:16:35;12.40;98.50
51996;DHT22;38010;53.264;6.592;2022-12-18T08:19:01;12.40;98.50
51996;DHT22;38010;53.264;6.592;2022-12-18T08:21:29;12.40;98.40
51996;DHT22;38010;53.264;6.592;2022-12-18T08:23:57;12.40;98.40
51996;DHT22;38010;53.264;6.592;2022-12-18T08:26:24;12.40;98.50
51996;DHT22;38010;53.264;6.592;2022-12-18T08:28:52;12.30;98.40
51996;DHT22;38010;53.264;6.592;2022-12-18T08:31:19;12.40;98.30
51996;DHT22;38010;53.264;6.592;2022-12-18T08:33:44;12.40;98.40
51996;DHT22;38010;53.264;6.592;2022-12-18T08:36:10;12.40;98.40
51996;DHT22;38010;53.264;6.592;2022-12-18T08:38:36;12.40;98.40
51996;DHT22;38010;53.264;6.592;2022-12-18T08:41:04;12.30;98.30
51996;DHT22;38010;53.264;6.592;2022-12-18T08:43:30;12.30;98.30
51996;DHT22;38010;53.264;6.592;2022-12-18T08:46:14;12.30;98.30
51996;DHT22;38010;53.264;6.592;2022-12-18T08:48:40;12.30;98.30
51996;DHT22;38010;53.264;6.592;2022-12-18T08:51:05;12.30;98.30
51996;DHT22;38010;53.264;6.592;2022-12-18T08:53:31;12.30;98.30
51996;DHT22;38010;53.264;6.592;2022-12-18T08:55:57;12.30;98.60
51996;DHT22;38010;53.264;6.592;2022-12-18T08:58:23;12.30;98.30
51996;DHT22;38010;53.264;6.592;2022-12-18T09:00:49;12.30;98.30
51996;DHT22;38010;53.264;6.592;2022-12-18T09:03:17;12.30;98.30
51996;DHT22;38010;53.264;6.592;2022-12-18T09:05:45;12.30;98.30
51996;DHT22;38010;53.264;6.592;2022-12-18T09:08:11;12.30;98.30
51996;DHT22;38010;53.264;6.592;2022-12-18T09:10:47;12.30;98.30
51996;DHT22;38010;53.264;6.592;2022-12-18T09:13:13;12.30;98.30
51996;DHT22;38010;53.264;6.592;2022-12-18T09:15:57;12.30;98.30
51996;DHT22;38010;53.264;6.592;2022-12-18T09:18:24;12.30;98.30
51996;DHT22;38010;53.264;6.592;2022-12-18T09:20:50;12.30;98.30
51996;DHT22;38010;53.264;6.592;2022-12-18T09:23:18;12.30;98.30
51996;DHT22;38010;53.264;6.592;2022-12-18T09:25:43;12.30;98.30
51996;DHT22;38010;53.264;6.592;2022-12-18T09:28:12;12.30;98.30
51996;DHT22;38010;53.264;6.592;2022-12-18T09:30:40;12.30;98.30
51996;DHT22;38010;53.264;6.592;2022-12-18T09:33:06;12.30;98.30
51996;DHT22;38010;53.264;6.592;2022-12-18T09:35:32;12.30;98.30
51996;DHT22;38010;53.264;6.592;2022-12-18T09:37:58;12.30;98.30
51996;DHT22;38010;53.264;6.592;2022-12-18T09:40:26;12.30;98.20
51996;DHT22;38010;53.264;6.592;2022-12-18T09:43:00;12.30;98.20
51996;DHT22;38010;53.264;6.592;2022-12-18T09:45:37;12.40;98.20
51996;DHT22;38010;53.264;6.592;2022-12-18T09:48:05;12.30;98.20
51996;DHT22;38010;53.264;6.592;2022-12-18T09:50:38;12.30;98.20
51996;DHT22;38010;53.264;6.592;2022-12-18T09:53:12;12.30;98.20
51996;DHT22;38010;53.264;6.592;2022-12-18T09:55:41;12.30;98.20
51996;DHT22;38010;53.264;6.592;2022-12-18T09:58:41;12.30;98.20
51996;DHT22;38010;53.264;6.592;2022-12-18T10:01:17;12.30;98.20
51996;DHT22;38010;53.264;6.592;2022-12-18T10:03:44;12.30;98.20
51996;DHT22;38010;53.264;6.592;2022-12-18T10:08:56;12.20;98.20
51996;DHT22;38010;53.264;6.592;2022-12-18T10:25:25;12.40;98.20
51996;DHT22;38010;53.264;6.592;2022-12-18T10:27:56;12.40;98.20
51996;DHT22;38010;53.264;6.592;2022-12-18T10:30:24;12.40;98.20
51996;DHT22;38010;53.264;6.592;2022-12-18T10:32:50;12.40;98.00
51996;DHT22;38010;53.264;6.592;2022-12-18T10:35:26;12.40;98.20
51996;DHT22;38010;53.264;6.592;2022-12-18T10:40:27;12.50;98.20
51996;DHT22;38010;53.264;6.592;2022-12-18T10:45:29;12.50;97.90
51996;DHT22;38010;53.264;6.592;2022-12-18T10:47:55;12.50;98.40
51996;DHT22;38010;53.264;6.592;2022-12-18T10:50:35;12.50;98.10
51996;DHT22;38010;53.264;6.592;2022-12-18T10:53:04;12.50;98.10
51996;DHT22;38010;53.264;6.592;2022-12-18T10:55:35;12.50;98.10
51996;DHT22;38010;53.264;6.592;2022-12-18T10:58:25;12.50;98.10
51996;DHT22;38010;53.264;6.592;2022-12-18T11:01:12;12.50;98.10
51996;DHT22;38010;53.264;6.592;2022-12-18T11:03:58;12.50;98.10
51996;DHT22;38010;53.264;6.592;2022-12-18T11:06:25;12.50;98.10
51996;DHT22;38010;53.264;6.592;2022-12-18T11:09:05;12.50;98.10
51996;DHT22;38010;53.264;6.592;2022-12-18T11:11:32;12.50;98.10
51996;DHT22;38010;53.264;6.592;2022-12-18T11:14:04;12.40;98.10
51996;DHT22;38010;53.264;6.592;2022-12-18T11:16:37;12.40;98.10
51996;DHT22;38010;53.264;6.592;2022-12-18T11:19:30;12.50;98.10
51996;DHT22;38010;53.264;6.592;2022-12-18T11:21:57;12.40;98.10
51996;DHT22;38010;53.264;6.592;2022-12-18T11:24:34;12.40;98.40
51996;DHT22;38010;53.264;6.592;2022-12-18T11:27:03;12.40;98.10
51996;DHT22;38010;53.264;6.592;2022-12-18T11:29:37;12.40;98.10
51996;DHT22;38010;53.264;6.592;2022-12-18T11:34:47;12.30;98.10
51996;DHT22;38010;53.264;6.592;2022-12-18T11:37:15;12.30;98.10
51996;DHT22;38010;53.264;6.592;2022-12-18T11:42:30;12.30;98.20
51996;DHT22;38010;53.264;6.592;2022-12-18T11:45:25;12.30;98.20
51996;DHT22;38010;53.264;6.592;2022-12-18T11:51:02;12.30;98.30
51996;DHT22;38010;53.264;6.592;2022-12-18T11:53:30;12.30;98.30
51996;DHT22;38010;53.264;6.592;2022-12-18T12:01:48;12.30;98.40
51996;DHT22;38010;53.264;6.592;2022-12-18T12:17:37;12.30;98.50
51996;DHT22;38010;53.264;6.592;2022-12-18T12:20:19;12.30;98.50
51996;DHT22;38010;53.264;6.592;2022-12-18T12:25:44;12.30;98.50
51996;DHT22;38010;53.264;6.592;2022-12-18T12:39:07;12.40;98.60
51996;DHT22;38010;53.264;6.592;2022-12-18T12:41:35;12.30;98.60
51996;DHT22;38010;53.264;6.592;2022-12-18T12:44:44;12.30;98.60
51996;DHT22;38010;53.264;6.592;2022-12-18T12:47:22;12.30;98.60
51996;DHT22;38010;53.264;6.592;2022-12-18T12:49:49;12.30;98.60
51996;DHT22;38010;53.264;6.592;2022-12-18T12:52:42;12.30;98.60
51996;DHT22;38010;53.264;6.592;2022-12-18T12:55:16;12.40;98.60
51996;DHT22;38010;53.264;6.592;2022-12-18T12:58:05;12.40;98.60
51996;DHT22;38010;53.264;6.592;2022-12-18T13:00:56;12.30;98.60
51996;DHT22;38010;53.264;6.592;2022-12-18T13:05:58;12.30;98.60
51996;DHT22;38010;53.264;6.592;2022-12-18T13:08:31;12.30;98.60
51996;DHT22;38010;53.264;6.592;2022-12-18T13:10:58;12.30;98.70
51996;DHT22;38010;53.264;6.592;2022-12-18T13:13:53;12.30;98.90
51996;DHT22;38010;53.264;6.592;2022-12-18T13:16:21;12.30;98.70
51996;DHT22;38010;53.264;6.592;2022-12-18T13:18:56;12.40;98.70
51996;DHT22;38010;53.264;6.592;2022-12-18T13:21:34;12.30;98.70
51996;DHT22;38010;53.264;6.592;2022-12-18T13:26:47;12.40;98.70
51996;DHT22;38010;53.264;6.592;2022-12-18T13:29:44;12.30;98.70
51996;DHT22;38010;53.264;6.592;2022-12-18T13:32:24;12.40;98.70
51996;DHT22;38010;53.264;6.592;2022-12-18T13:37:50;12.30;98.70
51996;DHT22;38010;53.264;6.592;2022-12-18T13:43:21;12.30;98.70
51996;DHT22;38010;53.264;6.592;2022-12-18T13:46:17;12.40;98.80
51996;DHT22;38010;53.264;6.592;2022-12-18T13:48:55;12.40;98.80
51996;DHT22;38010;53.264;6.592;2022-12-18T13:51:21;12.40;98.70
51996;DHT22;38010;53.264;6.592;2022-12-18T13:53:58;12.40;98.80
51996;DHT22;38010;53.264;6.592;2022-12-18T13:56:30;12.40;98.70
51996;DHT22;38010;53.264;6.592;2022-12-18T13:59:20;12.40;98.70
51996;DHT22;38010;53.264;6.592;2022-12-18T14:01:51;12.40;98.70
51996;DHT22;38010;53.264;6.592;2022-12-18T14:04:34;12.40;98.70
51996;DHT22;38010;53.264;6.592;2022-12-18T14:07:17;12.40;98.70
51996;DHT22;38010;53.264;6.592;2022-12-18T14:09:46;12.40;98.70
51996;DHT22;38010;53.264;6.592;2022-12-18T14:12:24;12.30;98.70
51996;DHT22;38010;53.264;6.592;2022-12-18T14:18:01;12.40;98.70
51996;DHT22;38010;53.264;6.592;2022-12-18T14:20:31;12.30;98.70
51996;DHT22;38010;53.264;6.592;2022-12-18T14:22:57;12.30;98.70
51996;DHT22;38010;53.264;6.592;2022-12-18T14:25:26;12.40;98.70
51996;DHT22;38010;53.264;6.592;2022-12-18T14:30:41;12.30;98.70
51996;DHT22;38010;53.264;6.592;2022-12-18T14:33:12;12.30;98.70
51996;DHT22;38010;53.264;6.592;2022-12-18T14:38:29;12.30;98.70
51996;DHT22;38010;53.264;6.592;2022-12-18T14:41:12;12.40;98.70
51996;DHT22;38010;53.264;6.592;2022-12-18T14:43:44;12.30;98.70
51996;DHT22;38010;53.264;6.592;2022-12-18T14:46:39;12.30;98.70
51996;DHT22;38010;53.264;6.592;2022-12-18T14:49:27;12.30;98.70
51996;DHT22;38010;53.264;6.592;2022-12-18T14:51:59;12.40;98.70
51996;DHT22;38010;53.264;6.592;2022-12-18T14:54:26;12.30;98.70
51996;DHT22;38010;53.264;6.592;2022-12-18T14:57:14;12.40;98.70
51996;DHT22;38010;53.264;6.592;2022-12-18T14:59:42;12.30;98.70
51996;DHT22;38010;53.264;6.592;2022-12-18T15:02:24;12.40;98.70
51996;DHT22;38010;53.264;6.592;2022-12-18T15:07:46;12.40;98.70
51996;DHT22;38010;53.264;6.592;2022-12-18T15:12:41;12.40;98.70
51996;DHT22;38010;53.264;6.592;2022-12-18T15:20:45;12.40;98.80
51996;DHT22;38010;53.264;6.592;2022-12-18T15:23:21;12.50;98.40
51996;DHT22;38010;53.264;6.592;2022-12-18T15:26:01;12.50;98.60
51996;DHT22;38010;53.264;6.592;2022-12-18T15:34:00;12.50;98.60
51996;DHT22;38010;53.264;6.592;2022-12-18T15:36:28;12.50;98.60
51996;DHT22;38010;53.264;6.592;2022-12-18T15:38:57;12.50;98.60
51996;DHT22;38010;53.264;6.592;2022-12-18T15:41:23;12.50;98.50
51996;DHT22;38010;53.264;6.592;2022-12-18T15:43:50;12.60;98.60
51996;DHT22;38010;53.264;6.592;2022-12-18T15:46:24;12.50;98.50
51996;DHT22;38010;53.264;6.592;2022-12-18T15:48:52;12.50;98.50
51996;DHT22;38010;53.264;6.592;2022-12-18T15:51:23;12.50;98.50
51996;DHT22;38010;53.264;6.592;2022-12-18T15:53:52;12.50;98.50
51996;DHT22;38010;53.264;6.592;2022-12-18T15:56:19;12.50;98.50
51996;DHT22;38010;53.264;6.592;2022-12-18T15:59:12;12.50;98.50
51996;DHT22;38010;53.264;6.592;2022-12-18T16:01:38;12.50;98.50
51996;DHT22;38010;53.264;6.592;2022-12-18T16:04:04;12.50;98.50
51996;DHT22;38010;53.264;6.592;2022-12-18T16:06:30;12.50;98.50
51996;DHT22;38010;53.264;6.592;2022-12-18T16:08:55;12.50;98.50
51996;DHT22;38010;53.264;6.592;2022-12-18T16:11:27;12.50;98.50
51996;DHT22;38010;53.264;6.592;2022-12-18T16:14:17;12.50;98.50
51996;DHT22;38010;53.264;6.592;2022-12-18T16:16:44;12.40;98.50
51996;DHT22;38010;53.264;6.592;2022-12-18T16:19:10;12.40;98.50
51996;DHT22;38010;53.264;6.592;2022-12-18T16:21:36;12.40;98.50
51996;DHT22;38010;53.264;6.592;2022-12-18T16:24:02;12.40;98.50
51996;DHT22;38010;53.264;6.592;2022-12-18T16:26:28;12.40;98.50
51996;DHT22;38010;53.264;6.592;2022-12-18T16:28:53;12.40;98.50
51996;DHT22;38010;53.264;6.592;2022-12-18T16:31:19;12.40;98.50
51996;DHT22;38010;53.264;6.592;2022-12-18T16:33:46;12.40;98.50
51996;DHT22;38010;53.264;6.592;2022-12-18T16:36:11;12.40;98.50
51996;DHT22;38010;53.264;6.592;2022-12-18T16:38:37;12.40;98.50
51996;DHT22;38010;53.264;6.592;2022-12-18T16:41:17;12.40;98.50
51996;DHT22;38010;53.264;6.592;2022-12-18T16:43:59;12.40;98.50
51996;DHT22;38010;53.264;6.592;2022-12-18T16:46:25;12.40;98.50
51996;DHT22;38010;53.264;6.592;2022-12-18T16:48:51;12.40;98.60
51996;DHT22;38010;53.264;6.592;2022-12-18T16:51:17;12.40;98.50
51996;DHT22;38010;53.264;6.592;2022-12-18T16:53:42;12.40;98.50
51996;DHT22;38010;53.264;6.592;2022-12-18T16:56:08;12.40;98.60
51996;DHT22;38010;53.264;6.592;2022-12-18T16:58:34;12.40;98.60
51996;DHT22;38010;53.264;6.592;2022-12-18T17:01:00;12.40;98.60
51996;DHT22;38010;53.264;6.592;2022-12-18T17:03:26;12.40;98.50
51996;DHT22;38010;53.264;6.592;2022-12-18T17:05:51;12.40;98.60
51996;DHT22;38010;53.264;6.592;2022-12-18T17:08:17;12.40;98.50
51996;DHT22;38010;53.264;6.592;2022-12-18T17:10:43;12.40;98.50
51996;DHT22;38010;53.264;6.592;2022-12-18T17:13:08;12.40;98.50
51996;DHT22;38010;53.264;6.592;2022-12-18T17:15:35;12.40;98.50
51996;DHT22;38010;53.264;6.592;2022-12-18T17:18:02;12.40;98.50
51996;DHT22;38010;53.264;6.592;2022-12-18T17:20:29;12.40;98.50
51996;DHT22;38010;53.264;6.592;2022-12-18T17:22:55;12.40;98.50
51996;DHT22;38010;53.264;6.592;2022-12-18T17:25:21;12.40;98.50
51996;DHT22;38010;53.264;6.592;2022-12-18T17:27:46;12.40;98.50
51996;DHT22;38010;53.264;6.592;2022-12-18T17:30:12;12.40;98.50
51996;DHT22;38010;53.264;6.592;2022-12-18T17:32:38;12.40;98.50
51996;DHT22;38010;53.264;6.592;2022-12-18T17:35:04;12.40;98.50
51996;DHT22;38010;53.264;6.592;2022-12-18T17:37:30;12.40;98.50
51996;DHT22;38010;53.264;6.592;2022-12-18T17:39:55;12.40;98.50
51996;DHT22;38010;53.264;6.592;2022-12-18T17:42:21;12.40;98.50
51996;DHT22;38010;53.264;6.592;2022-12-18T17:44:47;12.40;98.50
51996;DHT22;38010;53.264;6.592;2022-12-18T17:47:14;12.40;98.50
51996;DHT22;38010;53.264;6.592;2022-12-18T17:49:39;12.40;98.50
51996;DHT22;38010;53.264;6.592;2022-12-18T17:52:05;12.40;98.50
51996;DHT22;38010;53.264;6.592;2022-12-18T17:54:31;12.40;98.50
51996;DHT22;38010;53.264;6.592;2022-12-18T17:56:57;12.40;98.50